createdAt,value
2018-09-18T00:02:29.940Z,11.20
2018-09-18T00:05:01.701Z,11.67
2018-09-18T00:07:32.687Z,11.47
2018-09-18T00:10:03.896Z,12.27
2018-09-18T00:12:34.886Z,11.83
2018-09-18T00:15:06.074Z,11.67
2018-09-18T00:17:37.280Z,11.47
2018-09-18T00:20:08.766Z,10.73
2018-09-18T00:22:40.082Z,11.00
2018-09-18T00:25:11.469Z,11.17
2018-09-18T00:27:42.815Z,12.03
2018-09-18T00:30:13.861Z,12.30
2018-09-18T00:32:45.579Z,12.67
2018-09-18T00:35:16.765Z,13.00
2018-09-18T00:37:47.971Z,12.93
2018-09-18T00:40:19.461Z,12.47
2018-09-18T00:42:50.766Z,11.80
2018-09-18T00:45:22.223Z,13.80
2018-09-18T00:47:56.197Z,14.97
2018-09-18T00:50:27.311Z,11.50
2018-09-18T00:52:58.560Z,12.80
2018-09-18T00:55:29.977Z,12.20
2018-09-18T00:58:01.050Z,12.13
2018-09-18T01:00:32.279Z,12.93
2018-09-18T01:03:03.695Z,12.03
2018-09-18T01:05:34.891Z,12.57
2018-09-18T01:08:06.367Z,13.10
2018-09-18T01:11:40.836Z,12.77
2018-09-18T01:14:12.092Z,12.77
2018-09-18T01:16:43.571Z,13.07
2018-09-18T01:19:14.716Z,17.47
2018-09-18T01:21:45.983Z,12.97
2018-09-18T01:24:17.070Z,12.90
2018-09-18T01:26:48.459Z,13.27
2018-09-18T01:29:19.626Z,12.87
2018-09-18T01:31:50.656Z,12.67
2018-09-18T01:34:22.010Z,14.97
2018-09-18T01:36:53.508Z,13.33
2018-09-18T01:39:24.802Z,13.47
2018-09-18T01:41:55.966Z,13.47
2018-09-18T01:44:27.189Z,13.77
2018-09-18T01:46:58.354Z,12.83
2018-09-18T01:49:29.617Z,13.07
2018-09-18T01:52:00.724Z,12.67
2018-09-18T01:54:31.758Z,13.37
2018-09-18T01:57:03.229Z,14.17
2018-09-18T01:59:34.355Z,14.23
2018-09-18T02:02:05.719Z,14.77
2018-09-18T02:04:37.564Z,13.90
2018-09-18T02:07:09.224Z,13.63
2018-09-18T02:09:40.262Z,14.40
2018-09-18T02:12:11.472Z,12.90
2018-09-18T02:14:42.471Z,13.37
2018-09-18T02:17:13.639Z,13.80
2018-09-18T02:19:44.745Z,13.87
2018-09-18T02:22:15.807Z,14.30
2018-09-18T02:24:46.825Z,15.27
2018-09-18T02:27:18.025Z,14.10
2018-09-18T02:29:49.219Z,12.83
2018-09-18T02:32:20.456Z,13.07
2018-09-18T02:34:51.773Z,13.00
2018-09-18T02:37:23.000Z,12.47
2018-09-18T02:39:54.408Z,12.17
2018-09-18T02:42:25.811Z,12.83
2018-09-18T02:44:56.959Z,12.50
2018-09-18T02:47:28.150Z,12.57
2018-09-18T02:49:59.155Z,13.13
2018-09-18T02:52:30.326Z,14.23
2018-09-18T02:55:01.537Z,13.10
2018-09-18T02:57:33.379Z,12.90
2018-09-18T03:00:04.901Z,13.33
2018-09-18T03:02:36.146Z,12.03
2018-09-18T03:05:07.394Z,11.67
2018-09-18T03:07:39.042Z,11.73
2018-09-18T03:10:10.349Z,11.80
2018-09-18T03:12:41.640Z,13.50
2018-09-18T03:15:12.693Z,11.70
2018-09-18T03:17:43.823Z,12.13
2018-09-18T03:20:15.031Z,12.30
2018-09-18T03:22:46.324Z,13.03
2018-09-18T03:25:18.247Z,12.33
2018-09-18T03:27:49.584Z,11.43
2018-09-18T03:30:20.608Z,10.77
2018-09-18T03:32:52.123Z,12.27
2018-09-18T03:35:23.360Z,11.80
2018-09-18T03:37:54.712Z,13.10
2018-09-18T03:40:25.924Z,12.20
2018-09-18T03:42:57.099Z,12.20
2018-09-18T03:45:28.107Z,12.10
2018-09-18T03:47:59.104Z,12.00
2018-09-18T03:50:30.300Z,12.23
2018-09-18T03:53:01.472Z,12.07
2018-09-18T03:55:32.480Z,13.07
2018-09-18T03:58:03.676Z,12.63
2018-09-18T04:00:34.869Z,14.17
2018-09-18T04:03:06.056Z,15.40
2018-09-18T04:05:37.240Z,13.50
2018-09-18T04:08:08.458Z,12.87
2018-09-18T04:10:39.648Z,13.30
2018-09-18T04:13:11.036Z,13.27
2018-09-18T04:15:42.919Z,13.87
2018-09-18T04:18:16.762Z,13.00
2018-09-18T04:20:47.707Z,15.30
2018-09-18T04:23:18.904Z,15.13
2018-09-18T04:25:50.138Z,14.40
2018-09-18T04:28:21.794Z,14.60
2018-09-18T04:30:53.107Z,13.93
2018-09-18T04:33:24.183Z,13.80
2018-09-18T04:35:55.753Z,14.37
2018-09-18T04:38:26.880Z,16.50
2018-09-18T04:40:58.238Z,14.63
2018-09-18T04:43:29.460Z,15.33
2018-09-18T04:46:00.906Z,16.90
2018-09-18T04:48:32.237Z,15.80
2018-09-18T04:51:03.214Z,16.70
2018-09-18T04:53:35.074Z,16.50
2018-09-18T04:56:06.894Z,17.27
2018-09-18T04:58:37.995Z,15.87
2018-09-18T05:01:09.279Z,15.80
2018-09-18T05:03:40.927Z,15.20
2018-09-18T05:06:12.140Z,16.50
2018-09-18T05:08:43.175Z,15.10
2018-09-18T05:11:14.909Z,17.23
2018-09-18T05:13:45.918Z,15.70
2018-09-18T05:16:17.114Z,15.27
2018-09-18T05:18:48.479Z,15.57
2018-09-18T05:21:19.714Z,14.57
2018-09-18T05:23:51.059Z,14.77
2018-09-18T05:26:22.269Z,14.43
2018-09-18T05:28:53.307Z,14.23
2018-09-18T05:31:24.691Z,15.67
2018-09-18T05:33:55.910Z,14.67
2018-09-18T05:36:27.311Z,14.67
2018-09-18T05:38:58.644Z,15.03
2018-09-18T05:41:30.004Z,13.97
2018-09-18T05:44:00.992Z,13.50
2018-09-18T05:46:32.503Z,15.17
2018-09-18T05:49:03.571Z,14.13
2018-09-18T05:51:35.044Z,13.50
2018-09-18T05:54:06.225Z,12.87
2018-09-18T05:56:37.412Z,14.80
2018-09-18T05:59:08.774Z,16.73
2018-09-18T06:01:40.217Z,18.07
2018-09-18T06:04:11.680Z,16.37
2018-09-18T06:06:42.760Z,15.33
2018-09-18T06:09:14.875Z,13.23
2018-09-18T06:11:45.879Z,12.23
2018-09-18T06:14:17.116Z,13.57
2018-09-18T06:16:48.463Z,13.70
2018-09-18T06:19:19.958Z,13.03
2018-09-18T06:21:51.312Z,13.00
2018-09-18T06:24:22.412Z,14.20
2018-09-18T06:26:53.679Z,13.17
2018-09-18T06:29:25.003Z,15.43
2018-09-18T06:31:55.991Z,12.93
2018-09-18T06:34:27.192Z,13.23
2018-09-18T06:36:58.437Z,13.13
2018-09-18T06:39:29.788Z,18.40
2018-09-18T06:42:00.943Z,16.77
2018-09-18T06:44:32.448Z,19.10
2018-09-18T06:47:03.746Z,15.20
2018-09-18T06:49:34.734Z,13.47
2018-09-18T06:52:05.811Z,15.30
2018-09-18T06:54:37.207Z,14.43
2018-09-18T06:57:08.676Z,13.30
2018-09-18T06:59:39.907Z,13.83
2018-09-18T07:02:14.734Z,12.50
2018-09-18T07:04:46.050Z,12.83
2018-09-18T07:07:17.383Z,12.00
2018-09-18T07:09:48.398Z,14.73
2018-09-18T07:12:19.570Z,12.57
2018-09-18T07:14:50.778Z,13.47
2018-09-18T07:17:21.760Z,12.80
2018-09-18T07:19:53.377Z,12.20
2018-09-18T07:22:24.526Z,13.03
2018-09-18T07:24:56.164Z,12.33
2018-09-18T07:27:27.817Z,12.73
2018-09-18T07:29:58.920Z,11.20
2018-09-18T07:32:30.587Z,12.87
2018-09-18T07:35:02.346Z,14.20
2018-09-18T07:37:33.947Z,16.23
2018-09-18T07:40:05.353Z,15.80
2018-09-18T07:42:36.645Z,14.80
2018-09-18T07:45:07.875Z,15.43
2018-09-18T07:47:39.030Z,9.70
2018-09-18T07:50:10.215Z,10.20
2018-09-18T07:52:41.223Z,10.40
2018-09-18T07:55:12.400Z,10.23
2018-09-18T07:57:43.461Z,9.80
2018-09-18T08:00:14.804Z,9.83
2018-09-18T08:02:45.940Z,9.50
2018-09-18T08:05:17.183Z,10.47
2018-09-18T08:07:48.391Z,9.20
2018-09-18T08:10:19.803Z,12.47
2018-09-18T08:12:50.943Z,11.00
2018-09-18T08:15:22.118Z,8.90
2018-09-18T08:17:53.322Z,11.33
2018-09-18T08:20:24.401Z,10.03
2018-09-18T08:22:55.527Z,8.63
2018-09-18T08:25:27.596Z,9.53
2018-09-18T08:27:58.941Z,9.40
2018-09-18T08:30:30.264Z,8.60
2018-09-18T08:33:01.518Z,8.60
2018-09-18T08:35:32.863Z,8.90
2018-09-18T08:38:04.276Z,11.17
2018-09-18T08:40:35.745Z,7.97
2018-09-18T08:43:07.075Z,10.87
2018-09-18T08:45:38.403Z,8.27
2018-09-18T08:48:09.602Z,9.70
2018-09-18T08:50:40.977Z,10.77
2018-09-18T08:53:13.093Z,7.37
2018-09-18T08:55:44.576Z,9.83
2018-09-18T08:58:15.782Z,8.63
2018-09-18T09:00:46.739Z,8.20
2018-09-18T09:03:18.245Z,8.17
2018-09-18T09:05:49.581Z,10.57
2018-09-18T09:08:21.239Z,7.77
2018-09-18T09:10:53.201Z,7.40
2018-09-18T09:13:24.289Z,7.43
2018-09-18T09:15:55.671Z,8.60
2018-09-18T09:18:26.886Z,6.93
2018-09-18T09:20:58.121Z,6.50
2018-09-18T09:23:29.478Z,7.17
2018-09-18T09:26:00.822Z,7.40
2018-09-18T09:28:31.801Z,6.43
2018-09-18T09:31:03.001Z,9.23
2018-09-18T09:33:33.999Z,8.20
2018-09-18T09:36:05.728Z,10.13
2018-09-18T09:38:36.975Z,6.37
2018-09-18T09:41:08.545Z,8.80
2018-09-18T09:43:39.821Z,7.80
2018-09-18T09:46:10.935Z,7.37
2018-09-18T09:48:42.187Z,5.80
2018-09-18T09:51:13.410Z,6.40
2018-09-18T09:53:44.675Z,7.33
2018-09-18T09:56:15.716Z,6.93
2018-09-18T09:58:47.083Z,6.40
2018-09-18T10:01:23.044Z,7.93
2018-09-18T10:03:54.215Z,7.00
2018-09-18T10:06:25.943Z,7.73
2018-09-18T10:08:56.989Z,9.40
2018-09-18T10:11:28.672Z,8.00
2018-09-18T10:13:59.752Z,10.00
2018-09-18T10:16:30.925Z,7.00
2018-09-18T10:19:02.123Z,6.43
2018-09-18T10:21:33.319Z,10.23
2018-09-18T10:24:04.520Z,6.30
2018-09-18T10:26:35.737Z,6.47
2018-09-18T10:29:07.143Z,6.23
2018-09-18T10:31:38.290Z,5.83
2018-09-18T10:34:09.948Z,5.57
2018-09-18T10:36:41.036Z,8.43
2018-09-18T10:39:13.010Z,9.77
2018-09-18T10:41:44.162Z,6.83
2018-09-18T10:44:15.452Z,6.53
2018-09-18T10:46:46.598Z,8.83
2018-09-18T10:49:17.701Z,7.30
2018-09-18T10:51:48.797Z,7.33
2018-09-18T10:54:19.778Z,5.57
2018-09-18T10:56:51.267Z,7.78
2018-09-18T10:59:22.393Z,5.63
2018-09-18T11:01:53.971Z,6.67
2018-09-18T11:04:25.588Z,6.08
2018-09-18T11:06:57.174Z,8.48
2018-09-18T11:09:28.391Z,7.08
2018-09-18T11:11:59.706Z,5.37
2018-09-18T11:14:30.998Z,6.20
2018-09-18T11:17:02.364Z,5.67
2018-09-18T11:19:33.479Z,5.22
2018-09-18T11:22:04.915Z,6.12
2018-09-18T11:24:36.293Z,7.05
2018-09-18T11:27:07.741Z,5.20
2018-09-18T11:29:38.858Z,5.65
2018-09-18T11:32:10.519Z,6.20
2018-09-18T11:34:41.600Z,5.58
2018-09-18T11:37:12.813Z,5.20
2018-09-18T11:39:44.267Z,5.22
2018-09-18T11:42:15.850Z,5.25
2018-09-18T11:44:47.251Z,6.10
2018-09-18T11:47:18.552Z,4.90
2018-09-18T11:49:50.118Z,5.55
2018-09-18T11:52:21.147Z,5.83
2018-09-18T11:54:53.108Z,6.78
2018-09-18T11:57:24.112Z,6.45
2018-09-18T11:59:55.105Z,5.03
2018-09-18T12:02:26.143Z,5.00
2018-09-18T12:04:57.767Z,8.43
2018-09-18T12:07:28.844Z,6.35
2018-09-18T12:10:00.093Z,6.25
2018-09-18T12:12:31.439Z,6.75
2018-09-18T12:15:02.740Z,4.97
2018-09-18T12:17:34.020Z,4.78
2018-09-18T12:20:05.134Z,8.98
2018-09-18T12:22:37.125Z,6.05
2018-09-18T12:25:08.855Z,4.95
2018-09-18T12:27:40.500Z,5.45
2018-09-18T12:30:11.892Z,5.30
2018-09-18T12:32:43.160Z,10.30
2018-09-18T12:35:14.395Z,5.17
2018-09-18T12:37:45.700Z,6.80
2018-09-18T12:40:16.943Z,6.47
2018-09-18T12:42:48.670Z,4.95
2018-09-18T12:45:20.008Z,5.85
2018-09-18T12:47:51.291Z,5.92
2018-09-18T12:50:22.450Z,8.03
2018-09-18T12:52:53.932Z,6.17
2018-09-18T12:55:25.242Z,6.15
2018-09-18T12:57:56.428Z,5.15
2018-09-18T13:00:27.468Z,6.35
2018-09-18T13:02:58.623Z,6.03
2018-09-18T13:05:29.613Z,6.03
2018-09-18T13:08:01.041Z,4.95
2018-09-18T13:10:32.170Z,6.72
2018-09-18T13:13:03.186Z,5.15
2018-09-18T13:15:34.392Z,5.55
2018-09-18T13:18:05.643Z,5.10
2018-09-18T13:20:37.058Z,5.80
2018-09-18T13:23:08.375Z,5.25
2018-09-18T13:25:39.730Z,5.42
2018-09-18T13:28:10.921Z,6.72
2018-09-18T13:30:42.375Z,6.95
2018-09-18T13:33:13.684Z,4.92
2018-09-18T13:35:44.978Z,6.35
2018-09-18T13:38:16.263Z,7.60
2018-09-18T13:40:47.824Z,7.85
2018-09-18T13:43:19.063Z,4.80
2018-09-18T13:45:50.134Z,5.75
2018-09-18T13:48:21.254Z,7.78
2018-09-18T13:50:52.462Z,6.25
2018-09-18T13:53:23.913Z,6.55
2018-09-18T13:55:55.066Z,5.62
2018-09-18T13:58:26.304Z,7.17
2018-09-18T14:00:57.538Z,5.50
2018-09-18T14:03:28.639Z,6.37
2018-09-18T14:06:00.284Z,6.45
2018-09-18T14:08:31.392Z,6.60
2018-09-18T14:11:02.779Z,6.78
2018-09-18T14:13:34.755Z,4.70
2018-09-18T14:16:06.499Z,5.03
2018-09-18T14:18:37.743Z,5.15
2018-09-18T14:21:09.149Z,7.35
2018-09-18T14:23:40.511Z,5.67
2018-09-18T14:26:11.886Z,6.12
2018-09-18T14:28:43.568Z,7.05
2018-09-18T14:31:14.849Z,5.50
2018-09-18T14:33:46.048Z,6.27
2018-09-18T14:36:17.068Z,7.17
2018-09-18T14:38:48.436Z,6.03
2018-09-18T14:41:19.850Z,6.13
2018-09-18T14:43:51.968Z,5.70
2018-09-18T14:46:23.464Z,6.70
2018-09-18T14:48:54.751Z,6.05
2018-09-18T14:51:25.944Z,6.60
2018-09-18T14:53:57.143Z,7.08
2018-09-18T14:56:29.004Z,7.00
2018-09-18T14:59:00.352Z,6.57
2018-09-18T15:01:31.699Z,6.47
2018-09-18T15:04:02.708Z,5.77
2018-09-18T15:06:34.502Z,7.23
2018-09-18T15:09:07.499Z,6.97
2018-09-18T15:11:39.002Z,7.17
2018-09-18T15:14:10.543Z,8.20
2018-09-18T15:16:41.705Z,8.00
2018-09-18T15:19:12.987Z,5.57
2018-09-18T15:21:44.200Z,8.30
2018-09-18T15:24:15.171Z,7.33
2018-09-18T15:26:46.727Z,6.87
2018-09-18T15:29:17.999Z,6.37
2018-09-18T15:31:49.389Z,6.07
2018-09-18T15:34:20.740Z,8.87
2018-09-18T15:36:51.943Z,6.57
2018-09-18T15:39:23.174Z,7.37
2018-09-18T15:41:54.329Z,7.20
2018-09-18T15:44:25.681Z,7.00
2018-09-18T15:46:56.974Z,7.43
2018-09-18T15:49:28.252Z,7.20
2018-09-18T15:51:59.411Z,8.07
2018-09-18T15:54:30.440Z,9.60
2018-09-18T15:57:01.551Z,7.83
2018-09-18T15:59:33.203Z,7.33
2018-09-18T16:02:04.254Z,10.33
2018-09-18T16:04:35.615Z,7.30
2018-09-18T16:07:07.794Z,8.00
2018-09-18T16:09:38.996Z,5.53
2018-09-18T16:12:09.995Z,7.70
2018-09-18T16:14:41.272Z,6.30
2018-09-18T16:17:12.559Z,6.93
2018-09-18T16:19:43.744Z,8.17
2018-09-18T16:22:14.928Z,7.80
2018-09-18T16:24:46.009Z,7.10
2018-09-18T16:27:17.371Z,11.00
2018-09-18T16:29:48.933Z,5.90
2018-09-18T16:32:19.921Z,7.17
2018-09-18T16:34:51.924Z,6.13
2018-09-18T16:37:23.284Z,6.60
2018-09-18T16:39:54.277Z,10.60
2018-09-18T16:42:25.764Z,7.77
2018-09-18T16:44:57.022Z,8.77
2018-09-18T16:47:28.229Z,5.97
2018-09-18T16:49:59.412Z,7.17
2018-09-18T16:52:30.661Z,7.40
2018-09-18T16:55:02.124Z,7.57
2018-09-18T16:57:33.208Z,6.33
2018-09-18T17:00:04.561Z,7.47
2018-09-18T17:02:35.804Z,6.10
2018-09-18T17:05:07.282Z,4.80
2018-09-18T17:07:38.697Z,7.63
2018-09-18T17:10:09.949Z,5.20
2018-09-18T17:12:41.203Z,9.80
2018-09-18T17:15:12.544Z,7.77
2018-09-18T17:17:43.518Z,7.70
2018-09-18T17:20:14.560Z,8.40
2018-09-18T17:22:45.909Z,8.53
2018-09-18T17:25:16.974Z,5.90
2018-09-18T17:27:48.107Z,8.73
2018-09-18T17:30:21.011Z,7.87
2018-09-18T17:32:52.238Z,8.83
2018-09-18T17:35:23.215Z,6.57
2018-09-18T17:37:54.576Z,9.07
2018-09-18T17:40:25.814Z,8.63
2018-09-18T17:42:57.213Z,9.43
2018-09-18T17:45:29.056Z,7.47
2018-09-18T17:48:00.392Z,6.73
2018-09-18T17:50:31.360Z,11.30
2018-09-18T17:53:02.784Z,8.03
2018-09-18T17:55:34.159Z,7.63
2018-09-18T17:58:05.208Z,8.73
2018-09-18T18:00:36.374Z,8.77
2018-09-18T18:03:07.722Z,6.57
2018-09-18T18:05:39.498Z,8.37
2018-09-18T18:08:11.770Z,8.80
2018-09-18T18:10:43.166Z,7.83
2018-09-18T18:13:14.285Z,8.90
2018-09-18T18:15:45.463Z,6.40
2018-09-18T18:18:16.811Z,7.70
2018-09-18T18:20:47.858Z,11.03
2018-09-18T18:23:19.015Z,8.83
2018-09-18T18:25:50.258Z,9.70
2018-09-18T18:28:21.595Z,9.93
2018-09-18T18:30:52.636Z,9.83
2018-09-18T18:33:23.962Z,8.57
2018-09-18T18:35:55.239Z,7.17
2018-09-18T18:38:26.423Z,6.73
2018-09-18T18:40:57.771Z,7.60
2018-09-18T18:43:29.147Z,13.57
2018-09-18T18:46:00.632Z,9.20
2018-09-18T18:48:32.480Z,7.03
2018-09-18T18:51:03.743Z,8.03
2018-09-18T18:53:35.086Z,9.93
2018-09-18T18:56:06.128Z,8.10
2018-09-18T18:58:37.500Z,9.00
2018-09-18T19:01:08.877Z,9.07
2018-09-18T19:03:40.040Z,12.70
2018-09-18T19:06:11.294Z,13.60
2018-09-18T19:08:42.625Z,10.90
2018-09-18T19:11:13.840Z,5.63
2018-09-18T19:13:45.060Z,6.93
2018-09-18T19:16:16.891Z,8.97
2018-09-18T19:18:48.199Z,9.23
2018-09-18T19:21:19.416Z,7.43
2018-09-18T19:23:51.074Z,9.70
2018-09-18T19:26:22.177Z,10.07
2018-09-18T19:28:53.571Z,8.83
2018-09-18T19:31:24.908Z,9.53
2018-09-18T19:33:56.127Z,10.00
2018-09-18T19:36:27.109Z,10.43
2018-09-18T19:38:58.258Z,11.77
2018-09-18T19:41:29.488Z,13.60
2018-09-18T19:44:00.698Z,9.47
2018-09-18T19:46:32.683Z,10.97
2018-09-18T19:49:03.655Z,11.10
2018-09-18T19:51:34.727Z,9.47
2018-09-18T19:54:06.046Z,11.43
2018-09-18T19:56:37.298Z,10.13
2018-09-18T19:59:08.479Z,10.53
2018-09-18T20:01:39.819Z,9.97
2018-09-18T20:04:11.223Z,11.03
2018-09-18T20:06:42.635Z,8.63
2018-09-18T20:09:14.095Z,8.20
2018-09-18T20:11:45.676Z,8.97
2018-09-18T20:14:16.820Z,9.63
2018-09-18T20:16:47.934Z,11.77
2018-09-18T20:19:19.328Z,13.57
2018-09-18T20:21:50.571Z,9.73
2018-09-18T20:24:21.731Z,8.23
2018-09-18T20:26:53.694Z,12.97
2018-09-18T20:29:24.950Z,12.50
2018-09-18T20:31:56.272Z,13.23
2018-09-18T20:34:27.475Z,9.93
2018-09-18T20:36:58.720Z,10.27
2018-09-18T20:39:29.901Z,9.30
2018-09-18T20:42:01.528Z,8.97
2018-09-18T20:44:32.907Z,10.73
2018-09-18T20:47:04.251Z,11.87
2018-09-18T20:49:35.410Z,11.20
2018-09-18T20:52:06.829Z,11.13
2018-09-18T20:54:38.263Z,13.10
2018-09-18T20:57:09.559Z,10.83
2018-09-18T20:59:40.588Z,11.10
2018-09-18T21:02:12.820Z,10.03
2018-09-18T21:04:44.152Z,11.93
2018-09-18T21:07:16.783Z,12.97
2018-09-18T21:09:47.896Z,10.90
2018-09-18T21:12:19.274Z,9.83
2018-09-18T21:14:50.675Z,8.80
2018-09-18T21:17:21.672Z,10.37
2018-09-18T21:19:52.830Z,12.27
2018-09-18T21:22:24.125Z,10.07
2018-09-18T21:25:16.666Z,9.10
2018-09-18T21:27:48.432Z,9.43
2018-09-18T21:30:19.635Z,11.07
2018-09-18T21:32:50.856Z,12.20
2018-09-18T21:35:23.508Z,10.23
2018-09-18T21:37:54.800Z,11.23
2018-09-18T21:40:25.790Z,13.30
2018-09-18T21:42:56.997Z,9.17
2018-09-18T21:45:28.346Z,11.47
2018-09-18T21:47:59.585Z,10.30
2018-09-18T21:50:32.943Z,12.67
2018-09-18T21:53:04.327Z,11.47
2018-09-18T21:55:36.170Z,9.33
2018-09-18T21:58:07.484Z,9.83
2018-09-18T22:00:38.890Z,12.03
2018-09-18T22:03:10.337Z,11.27
2018-09-18T22:05:42.103Z,11.60
2018-09-18T22:08:13.427Z,9.60
2018-09-18T22:10:44.775Z,11.43
2018-09-18T22:13:16.026Z,12.17
2018-09-18T22:15:47.376Z,12.03
2018-09-18T22:18:18.560Z,11.60
2018-09-18T22:20:49.765Z,10.20
2018-09-18T22:23:20.809Z,10.53
2018-09-18T22:25:52.153Z,9.93
2018-09-18T22:28:23.466Z,9.47
2018-09-18T22:30:54.747Z,11.73
2018-09-18T22:33:26.987Z,10.13
2018-09-18T22:35:58.077Z,15.77
2018-09-18T22:38:29.536Z,11.97
2018-09-18T22:41:00.667Z,9.60
2018-09-18T22:43:31.873Z,10.17
2018-09-18T22:46:03.066Z,10.57
2018-09-18T22:48:34.239Z,8.83
2018-09-18T22:51:05.463Z,11.07
2018-09-18T22:53:37.160Z,13.93
2018-09-18T22:56:08.403Z,11.43
2018-09-18T22:58:39.643Z,12.13
2018-09-18T23:01:10.966Z,14.53
2018-09-18T23:03:41.995Z,9.57
2018-09-18T23:06:13.222Z,11.20
2018-09-18T23:08:44.744Z,10.43
2018-09-18T23:11:16.434Z,11.53
2018-09-18T23:13:48.400Z,10.70
2018-09-18T23:16:19.713Z,10.20
2018-09-18T23:18:50.750Z,10.97
2018-09-18T23:21:22.371Z,9.97
2018-09-18T23:23:54.000Z,13.47
2018-09-18T23:26:25.247Z,10.13
2018-09-18T23:28:56.469Z,11.13
2018-09-18T23:31:27.450Z,11.00
2018-09-18T23:33:58.519Z,9.30
2018-09-18T23:36:29.824Z,14.37
2018-09-18T23:39:00.876Z,11.50
2018-09-18T23:41:32.258Z,10.30
2018-09-18T23:44:10.386Z,10.87
2018-09-18T23:46:41.470Z,11.20
2018-09-18T23:49:12.710Z,10.80
2018-09-18T23:51:44.060Z,13.63
2018-09-18T23:54:15.265Z,10.67
2018-09-18T23:56:46.248Z,14.57
2018-09-18T23:59:18.274Z,9.70
